Time;durP1;ratioP1;P1;durP2;ratioP2;P2;SDS_P1;SDS_P2;PMS_P1;PMS_P2;Temp;Humidity;BMP_temperature;BMP_pressure;BME280_temperature;BME280_humidity;BME280_pressure;Samples;Min_cycle;Max_cycle;Signal;HPM_P1;HPM_P2
2023/07/23 00:01:26;;;;;;;4.33;4.23;;;;;;;-145.94;65.93;75988.84;5114506;28;20186;-68
2023/07/23 00:03:53;;;;;;;4.70;4.60;;;;;;;-145.94;65.73;75984.75;5114167;28;20212;-68
2023/07/23 00:06:19;;;;;;;4.90;4.87;;;;;;;-145.94;65.30;75986.78;5114210;28;20280;-67
2023/07/23 00:08:46;;;;;;;4.73;4.63;;;;;;;-145.94;65.28;75992.91;5114065;28;20209;-67
2023/07/23 00:11:12;;;;;;;5.20;5.00;;;;;;;-145.94;65.56;75997.00;5114118;28;20242;-67
2023/07/23 00:13:38;;;;;;;4.90;4.70;;;;;;;-145.94;65.25;75990.88;5113993;28;20561;-67
2023/07/23 00:16:05;;;;;;;5.20;5.10;;;;;;;-145.94;65.43;76001.06;5114549;28;20238;-67
2023/07/23 00:18:31;;;;;;;5.17;4.77;;;;;;;-145.94;65.48;75990.88;5114025;28;20185;-67
2023/07/23 00:20:58;;;;;;;4.80;4.70;;;;;;;-145.94;65.48;75990.88;5114003;28;20192;-67
2023/07/23 00:23:24;;;;;;;5.43;5.33;;;;;;;-145.94;65.60;76001.06;5113908;28;20205;-67
2023/07/23 00:25:51;;;;;;;5.57;5.20;;;;;;;-145.94;65.74;75990.88;5113908;28;20181;-67
2023/07/23 00:28:17;;;;;;;5.60;5.40;;;;;;;-145.94;65.61;75984.75;5113764;28;20732;-66
2023/07/23 00:30:44;;;;;;;5.20;4.77;;;;;;;-145.94;65.34;75978.63;5095686;28;20201;-67
2023/07/23 00:33:11;;;;;;;6.10;5.70;;;;;;;-145.94;65.32;75978.63;5113741;28;20220;-67
2023/07/23 00:35:37;;;;;;;5.20;4.90;;;;;;;-145.94;65.44;75968.44;5095561;28;20288;-67
2023/07/23 00:38:04;;;;;;;5.63;5.33;;;;;;;-145.94;65.30;75970.47;5114016;28;20554;-67
2023/07/23 00:40:30;;;;;;;5.23;5.10;;;;;;;-145.94;65.58;75970.47;5095524;28;20197;-66
2023/07/23 00:42:57;;;;;;;4.87;4.87;;;;;;;-145.94;65.48;75974.56;5113658;28;20198;-67
2023/07/23 00:45:24;;;;;;;5.20;4.90;;;;;;;-145.94;65.28;75966.41;5097542;28;20189;-67
2023/07/23 00:47:50;;;;;;;5.00;4.90;;;;;;;-145.94;65.66;75962.34;5120804;28;20181;-67
2023/07/23 00:50:17;;;;;;;5.40;5.17;;;;;;;-145.94;65.65;75960.28;5120418;28;20209;-67
2023/07/23 00:52:43;;;;;;;5.30;5.10;;;;;;;-145.94;65.26;75954.19;5102071;28;20706;-67
2023/07/23 00:55:10;;;;;;;5.43;5.27;;;;;;;-145.94;64.93;75950.09;5120992;28;20638;-67
2023/07/23 00:57:36;;;;;;;6.53;6.17;;;;;;;-145.94;64.69;75946.03;5120700;28;20189;-67
2023/07/23 01:00:07;;;;;;;6.13;5.93;;;;;;;-145.94;64.91;75937.88;5120674;28;20173;-67
2023/07/23 01:02:34;;;;;;;5.33;5.13;;;;;;;-145.94;64.97;75929.72;5102395;28;20251;-67
2023/07/23 01:05:00;;;;;;;6.10;5.67;;;;;;;-145.94;64.87;75929.72;5120324;28;20177;-67
2023/07/23 01:07:29;;;;;;;5.47;5.33;;;;;;;-145.94;64.54;75927.66;5102283;28;20193;-67
2023/07/23 01:09:56;;;;;;;6.07;5.77;;;;;;;-145.94;63.89;75909.31;5120217;28;20208;-67
2023/07/23 01:12:24;;;;;;;6.50;6.10;;;;;;;-145.94;64.34;75915.44;5101891;28;20224;-66
2023/07/23 01:14:51;;;;;;;8.80;8.23;;;;;;;-145.94;64.22;75909.31;5120539;28;20226;-66
2023/07/23 01:17:19;;;;;;;15.43;12.77;;;;;;;-145.94;64.38;75911.38;5101913;28;20193;-66
2023/07/23 01:19:46;;;;;;;26.20;16.93;;;;;;;-145.94;63.85;75901.16;5120450;28;20608;-66
2023/07/23 01:22:12;;;;;;;51.37;25.60;;;;;;;-145.94;63.87;75899.13;5120342;28;20288;-66
2023/07/23 01:24:39;;;;;;;44.27;25.83;;;;;;;-145.94;63.88;75903.22;5120141;28;20196;-66
2023/07/23 01:27:05;;;;;;;48.63;28.30;;;;;;;-145.94;63.64;75905.25;5101889;28;20189;-66
2023/07/23 01:29:32;;;;;;;67.80;32.77;;;;;;;-145.94;63.48;75897.09;5101536;28;20221;-66
2023/07/23 01:31:58;;;;;;;71.77;34.67;;;;;;;-145.94;63.68;75890.97;5101741;27;20208;-67
2023/07/23 01:34:25;;;;;;;54.80;31.73;;;;;;;-145.94;63.29;75893.00;5120052;28;20728;-66
2023/07/23 01:36:52;;;;;;;57.00;27.87;;;;;;;-145.94;63.73;75886.91;5120032;28;20188;-66
2023/07/23 01:39:19;;;;;;;46.07;25.43;;;;;;;-145.94;63.52;75874.66;5101735;28;20234;-66
2023/07/23 01:41:46;;;;;;;35.50;20.93;;;;;;;-145.94;63.21;75876.69;5120185;28;20280;-67
2023/07/23 01:44:12;;;;;;;26.10;18.03;;;;;;;-145.94;63.07;75864.47;5119995;28;20174;-67
2023/07/23 01:46:38;;;;;;;27.63;17.37;;;;;;;-145.94;62.87;75864.47;5101646;28;20659;-67
2023/07/23 01:49:05;;;;;;;23.80;15.10;;;;;;;-145.94;63.60;75864.47;5102443;28;20212;-67
2023/07/23 01:51:32;;;;;;;24.53;14.17;;;;;;;-145.94;63.25;75860.41;5101688;28;20189;-67
2023/07/23 01:53:58;;;;;;;15.67;12.33;;;;;;;-145.94;63.24;75854.28;5119799;28;20207;-68
2023/07/23 01:56:24;;;;;;;11.90;9.97;;;;;;;-145.94;62.97;75860.41;5119039;28;20595;-68
2023/07/23 01:58:51;;;;;;;11.23;10.33;;;;;;;-145.94;63.06;75854.28;5097839;28;20185;-68
2023/07/23 02:01:18;;;;;;;11.43;10.30;;;;;;;-145.94;63.17;75848.16;5098346;28;20189;-68
2023/07/23 02:03:45;;;;;;;10.63;9.57;;;;;;;-145.94;63.15;75844.09;5116481;28;20273;-68
2023/07/23 02:06:11;;;;;;;14.37;9.50;;;;;;;-145.94;63.31;75840.00;5116803;28;20193;-67
2023/07/23 02:08:38;;;;;;;11.00;10.13;;;;;;;-145.94;63.51;75840.00;5116743;28;20205;-67
2023/07/23 02:11:06;;;;;;;9.13;8.33;;;;;;;-145.94;63.18;75844.09;5116921;28;20189;-67
2023/07/23 02:13:32;;;;;;;9.07;7.70;;;;;;;-145.94;63.23;75837.97;5116357;28;20207;-68
2023/07/23 02:15:59;;;;;;;10.00;9.00;;;;;;;-145.94;63.46;75831.84;5116289;28;20182;-68
2023/07/23 02:18:25;;;;;;;9.07;8.37;;;;;;;-145.94;63.38;75837.97;5097990;28;20212;-67
2023/07/23 02:20:52;;;;;;;8.60;7.80;;;;;;;-145.94;63.68;75840.00;5098004;28;20196;-67
2023/07/23 02:23:18;;;;;;;8.13;7.53;;;;;;;-145.94;63.71;75842.03;5116141;28;20201;-69
2023/07/23 02:25:48;;;;;;;8.13;7.27;;;;;;;-145.94;64.17;75837.97;5116655;28;20666;-70
2023/07/23 02:28:15;;;;;;;7.80;6.70;;;;;;;-145.94;64.09;75842.03;5116317;28;20189;-70
2023/07/23 02:30:41;;;;;;;8.23;7.33;;;;;;;-145.94;63.94;75840.00;5116073;28;20205;-70
2023/07/23 02:33:08;;;;;;;6.60;6.30;;;;;;;-145.94;64.06;75835.94;5115967;28;20205;-70
2023/07/23 02:35:36;;;;;;;7.60;6.83;;;;;;;-145.94;64.17;75835.94;5115952;28;20197;-70
2023/07/23 02:38:03;;;;;;;7.47;7.07;;;;;;;-145.94;64.27;75827.78;5115921;28;20201;-71
2023/07/23 02:40:33;;;;;;;8.90;6.60;;;;;;;-145.94;64.30;75821.66;5097846;28;20197;-70
2023/07/23 02:43:01;;;;;;;6.90;6.60;;;;;;;-145.94;64.59;75821.66;5115978;28;20725;-70
2023/07/23 02:45:29;;;;;;;12.17;6.93;;;;;;;-145.94;64.71;75825.75;5116053;28;20268;-70
2023/07/23 02:47:55;;;;;;;6.80;6.50;;;;;;;-145.94;64.78;75823.69;5097419;28;20189;-70
2023/07/23 02:50:22;;;;;;;6.93;6.53;;;;;;;-145.94;64.65;75819.63;5115871;28;20697;-70
2023/07/23 02:52:48;;;;;;;6.43;6.23;;;;;;;-145.94;64.34;75823.69;5115550;28;20258;-70
2023/07/23 02:55:15;;;;;;;6.77;6.47;;;;;;;-145.94;64.62;75825.75;5097320;28;20654;-70
2023/07/23 02:57:41;;;;;;;9.57;6.33;;;;;;;-145.94;64.60;75823.69;5115531;28;20705;-70
2023/07/23 03:00:09;;;;;;;6.10;5.73;;;;;;;-145.94;64.35;75823.69;5115510;28;20169;-70
2023/07/23 03:02:35;;;;;;;6.80;6.17;;;;;;;-145.94;64.77;75821.66;5097104;28;20582;-70
2023/07/23 03:05:02;;;;;;;5.67;5.27;;;;;;;-145.94;64.25;75819.63;5097972;28;20186;-70
2023/07/23 03:07:34;;;;;;;6.60;6.40;;;;;;;-145.94;63.68;75815.53;5115638;28;20165;-70
2023/07/23 03:10:00;;;;;;;6.00;5.90;;;;;;;-145.94;63.66;75817.59;5097163;28;20212;-70
2023/07/23 03:12:28;;;;;;;5.90;5.60;;;;;;;-145.94;64.06;75819.63;5096917;28;20208;-70
2023/07/23 03:14:55;;;;;;;6.13;5.83;;;;;;;-145.94;63.44;75815.53;5115474;28;20181;-70
2023/07/23 03:17:22;;;;;;;6.63;6.33;;;;;;;-145.94;63.78;75811.47;5115506;28;20175;-70
2023/07/23 03:19:49;;;;;;;7.00;6.50;;;;;;;-145.94;63.29;75815.53;5115045;28;20201;-70
2023/07/23 03:22:15;;;;;;;6.57;6.37;;;;;;;-145.94;63.29;75815.53;5115139;28;20213;-70
2023/07/23 03:24:41;;;;;;;5.83;5.63;;;;;;;-145.94;63.29;75813.50;5114969;28;20185;-70
2023/07/23 03:27:08;;;;;;;6.23;6.03;;;;;;;-145.94;63.11;75803.31;5096687;28;20250;-70
2023/07/23 03:29:34;;;;;;;6.77;6.67;;;;;;;-145.94;62.36;75803.31;5115093;28;20273;-70
2023/07/23 03:32:01;;;;;;;6.30;6.10;;;;;;;-145.94;62.24;75801.28;5114781;28;20212;-70
2023/07/23 03:34:28;;;;;;;6.73;6.13;;;;;;;-145.94;62.68;75803.31;5096585;28;20281;-70
2023/07/23 03:36:54;;;;;;;6.23;6.13;;;;;;;-145.94;61.90;75809.44;5097322;28;20250;-70
2023/07/23 03:39:20;;;;;;;6.27;6.07;;;;;;;-145.94;61.99;75799.22;5115243;28;20177;-70
2023/07/23 03:41:47;;;;;;;7.10;6.80;;;;;;;-145.94;62.06;75801.28;5096383;28;20193;-70
2023/07/23 03:44:14;;;;;;;6.90;6.70;;;;;;;-145.94;61.29;75799.22;5115136;28;20181;-70
2023/07/23 03:46:57;;;;;;;6.43;6.23;;;;;;;-145.94;61.96;75801.28;5114548;28;20193;-70
2023/07/23 03:49:24;;;;;;;6.23;5.87;;;;;;;-145.94;61.94;75809.44;5114762;28;20189;-70
2023/07/23 03:51:50;;;;;;;8.97;7.40;;;;;;;-145.94;61.19;75799.22;5114660;28;20246;-70
2023/07/23 03:54:16;;;;;;;8.00;7.40;;;;;;;-145.94;60.89;75799.22;5114404;28;20181;-70
2023/07/23 03:56:43;;;;;;;6.13;6.03;;;;;;;-145.94;59.76;75789.03;5096042;28;20185;-70
2023/07/23 03:59:10;;;;;;;6.13;6.00;;;;;;;-145.94;59.42;75776.81;5096117;28;20532;-70
2023/07/23 04:01:36;;;;;;;6.20;6.00;;;;;;;-145.94;57.98;75766.63;5114220;28;20586;-70
2023/07/23 04:04:03;;;;;;;5.77;5.40;;;;;;;-145.94;55.64;75744.19;5114532;28;20169;-70
2023/07/23 04:06:29;;;;;;;6.30;5.87;;;;;;;-145.94;54.72;75734.00;5096248;28;20197;-70
2023/07/23 04:08:56;;;;;;;5.03;4.93;;;;;;;-145.94;53.77;75707.50;5114113;28;20591;-70
2023/07/23 04:11:22;;;;;;;5.00;5.00;;;;;;;-145.94;53.24;75699.34;5114137;28;20242;-70
2023/07/23 04:13:50;;;;;;;6.37;4.80;;;;;;;-145.94;51.52;75670.81;5095799;28;20213;-69
2023/07/23 04:16:16;;;;;;;4.77;4.57;;;;;;;-145.94;50.48;75642.25;5114015;28;20246;-70
2023/07/23 04:18:51;;;;;;;6.10;5.80;;;;;;;-145.94;50.78;75623.91;5114637;28;20717;-70
2023/07/23 04:21:18;;;;;;;4.80;4.70;;;;;;;-145.94;49.78;75609.66;5113765;28;20198;-69
2023/07/23 04:23:49;;;;;;;5.43;5.03;;;;;;;-145.94;49.58;75597.41;5114165;28;20255;-70
2023/07/23 04:26:16;;;;;;;5.37;5.20;;;;;;;-145.94;49.54;75597.41;5114787;28;20230;-70
2023/07/23 04:28:44;;;;;;;4.67;4.63;;;;;;;-145.94;49.21;75587.22;5114234;28;20199;-69
2023/07/23 04:31:11;;;;;;;5.43;5.23;;;;;;;-145.94;49.44;75585.19;5095489;28;20312;-69
2023/07/23 04:33:38;;;;;;;5.30;5.03;;;;;;;-145.94;48.48;75572.94;5113786;28;20274;-69
2023/07/23 04:36:07;;;;;;;5.07;4.77;;;;;;;-145.94;48.87;75575.00;5114048;28;20234;-70
2023/07/23 04:38:35;;;;;;;5.00;4.80;;;;;;;-145.94;48.51;75558.69;5113773;28;20710;-70
2023/07/23 04:41:01;;;;;;;4.90;4.90;;;;;;;-145.94;48.66;75556.63;5095551;28;20186;-70
2023/07/23 04:43:28;;;;;;;5.53;5.20;;;;;;;-145.94;48.46;75554.59;5113686;28;20262;-70
2023/07/23 04:45:54;;;;;;;5.17;4.90;;;;;;;-145.94;48.30;75552.56;5113993;28;20177;-70
2023/07/23 04:48:21;;;;;;;6.10;4.27;;;;;;;-145.94;48.12;75548.50;5114035;28;20708;-70
2023/07/23 04:50:58;;;;;;;5.27;4.90;;;;;;;-145.94;48.36;75546.44;5113876;28;20197;-70
2023/07/23 04:53:25;;;;;;;4.80;4.60;;;;;;;-145.94;48.42;75532.19;5113895;28;20209;-70
2023/07/23 04:55:55;;;;;;;4.73;4.63;;;;;;;-145.94;48.17;75536.25;5113902;28;20230;-69
2023/07/23 04:58:23;;;;;;;4.53;4.20;;;;;;;-145.94;48.11;75530.13;5114166;28;20185;-70
2023/07/23 05:00:50;;;;;;;9.50;4.50;;;;;;;-145.94;47.60;75522.00;5113570;28;20178;-70
2023/07/23 05:03:16;;;;;;;4.90;4.80;;;;;;;-145.94;47.39;75519.94;5113476;28;20624;-69
2023/07/23 05:05:47;;;;;;;4.97;4.57;;;;;;;-145.94;47.61;75513.84;5113757;28;20273;-70
2023/07/23 05:08:13;;;;;;;4.13;3.97;;;;;;;-145.94;47.99;75515.88;5114079;28;20235;-70
2023/07/23 05:10:40;;;;;;;8.43;4.50;;;;;;;-145.94;48.30;75515.88;5113647;28;20292;-70
2023/07/23 05:13:06;;;;;;;4.93;4.17;;;;;;;-145.94;47.51;75511.78;5113863;28;20560;-69
2023/07/23 05:15:33;;;;;;;4.90;4.70;;;;;;;-145.94;47.62;75499.56;5113450;28;20182;-70
2023/07/23 05:18:00;;;;;;;3.77;3.77;;;;;;;-145.94;47.10;75497.53;5113632;28;20535;-70
2023/07/23 05:20:26;;;;;;;4.07;3.93;;;;;;;-145.94;47.06;75495.50;5113940;28;20349;-70
2023/07/23 05:22:55;;;;;;;4.30;4.20;;;;;;;-145.94;47.17;75489.38;5113468;28;20213;-70
2023/07/23 05:25:21;;;;;;;4.03;3.93;;;;;;;-145.94;46.92;75487.34;5113642;28;20208;-69
2023/07/23 05:27:51;;;;;;;3.60;3.60;;;;;;;-145.94;46.57;75479.19;5113558;28;20188;-70
2023/07/23 05:30:18;;;;;;;4.00;3.80;;;;;;;-145.94;46.93;75479.19;5113470;28;20254;-70
2023/07/23 05:32:44;;;;;;;3.93;3.80;;;;;;;-145.94;46.88;75479.19;5114697;28;20258;-70
2023/07/23 05:35:12;;;;;;;3.97;3.63;;;;;;;-145.94;46.50;75477.13;5117116;28;20189;-70
2023/07/23 05:37:39;;;;;;;3.30;3.30;;;;;;;-145.94;46.40;75475.09;5117116;28;20193;-69
2023/07/23 05:40:06;;;;;;;3.30;3.30;;;;;;;-145.94;46.68;75468.97;5116937;28;20596;-70
2023/07/23 05:42:32;;;;;;;4.47;3.87;;;;;;;-145.94;46.41;75464.91;5117083;28;20763;-70
2023/07/23 05:44:59;;;;;;;3.47;3.47;;;;;;;-145.94;46.45;75460.84;5117125;28;20713;-70
2023/07/23 05:47:26;;;;;;;3.80;3.63;;;;;;;-145.94;46.35;75458.78;5116851;28;20678;-70
2023/07/23 05:49:52;;;;;;;3.53;3.30;;;;;;;-145.94;46.55;75454.72;5117361;28;20201;-70
2023/07/23 05:52:18;;;;;;;7.13;4.30;;;;;;;-145.94;46.53;75464.91;5116731;28;20254;-70
2023/07/23 05:54:45;;;;;;;4.17;3.97;;;;;;;-145.94;46.93;75464.91;5116788;28;20556;-70
2023/07/23 05:57:11;;;;;;;3.10;3.10;;;;;;;-145.94;46.85;75460.84;5116717;28;20196;-70
2023/07/23 05:59:38;;;;;;;3.50;3.50;;;;;;;-145.94;46.66;75464.91;5116611;28;20181;-69
2023/07/23 06:02:05;;;;;;;3.83;3.63;;;;;;;-145.94;46.40;75456.75;5116470;28;20209;-70
2023/07/23 06:04:31;;;;;;;3.87;3.50;;;;;;;-145.94;46.14;75460.84;5116864;28;20223;-69
2023/07/23 06:06:58;;;;;;;7.07;3.97;;;;;;;-145.94;45.76;75448.59;5116526;28;20652;-71
2023/07/23 06:09:26;;;;;;;4.67;4.30;;;;;;;-145.94;45.85;75448.59;5116338;28;20190;-69
2023/07/23 06:11:53;;;;;;;3.80;3.50;;;;;;;-145.94;45.77;75438.41;5116278;28;20189;-70
2023/07/23 06:14:19;;;;;;;2.93;2.93;;;;;;;-145.94;45.78;75432.28;5116214;28;20185;-70
2023/07/23 06:16:46;;;;;;;4.30;3.07;;;;;;;-145.94;45.33;75428.22;5116666;28;20181;-70
2023/07/23 06:19:12;;;;;;;3.00;2.97;;;;;;;-145.94;45.71;75422.09;5116800;28;20331;-70
2023/07/23 06:21:39;;;;;;;2.63;2.53;;;;;;;-145.94;45.27;75422.09;5116078;28;20231;-70
2023/07/23 06:24:05;;;;;;;3.40;3.17;;;;;;;-145.94;45.72;75413.94;5116141;28;20185;-71
2023/07/23 06:26:32;;;;;;;3.27;3.17;;;;;;;-145.94;46.16;75415.97;5116435;28;20250;-70
2023/07/23 06:28:58;;;;;;;2.90;2.90;;;;;;;-145.94;45.75;75407.84;5116359;28;20215;-70
2023/07/23 06:31:24;;;;;;;2.83;2.73;;;;;;;-145.94;45.36;75411.91;5116227;28;20209;-70
2023/07/23 06:33:51;;;;;;;3.17;2.97;;;;;;;-145.94;45.12;75403.75;5098133;28;20244;-70
2023/07/23 06:36:17;;;;;;;4.27;2.60;;;;;;;-145.94;45.48;75409.88;5116092;28;20250;-70
2023/07/23 06:38:45;;;;;;;7.50;2.77;;;;;;;-145.94;46.06;75415.97;5115914;28;20720;-70
2023/07/23 06:41:11;;;;;;;2.33;2.23;;;;;;;-145.94;45.23;75409.88;5116130;28;20332;-70
2023/07/23 06:43:37;;;;;;;3.00;2.90;;;;;;;-145.94;46.03;75415.97;5115077;28;20213;-70
2023/07/23 06:46:04;;;;;;;2.60;2.50;;;;;;;-145.94;46.13;75413.94;5116046;28;20652;-70
2023/07/23 06:48:30;;;;;;;23.03;2.37;;;;;;;-145.94;45.83;75415.97;5115750;28;20249;-70
2023/07/23 06:50:57;;;;;;;2.50;2.50;;;;;;;-145.94;45.69;75415.97;5115618;28;20668;-70
2023/07/23 06:53:24;;;;;;;3.37;3.17;;;;;;;-145.94;46.93;75428.22;5115707;28;20201;-70
2023/07/23 06:56:04;;;;;;;9.10;2.80;;;;;;;-145.94;46.38;75420.06;5116042;28;20185;-70
2023/07/23 06:58:36;;;;;;;2.60;2.60;;;;;;;-145.94;46.39;75418.03;5115686;28;20172;-70
2023/07/23 07:01:06;;;;;;;2.97;2.77;;;;;;;-145.94;46.92;75432.28;5116001;28;20256;-70
2023/07/23 07:03:32;;;;;;;4.97;3.27;;;;;;;-145.94;47.44;75428.22;5115769;28;20555;-70
2023/07/23 07:06:00;;;;;;;2.40;2.40;;;;;;;-145.94;45.99;75424.13;5115819;28;20520;-70
2023/07/23 07:08:28;;;;;;;3.13;2.83;;;;;;;-145.94;47.17;75434.34;5115909;28;20180;-70
2023/07/23 07:11:02;;;;;;;2.63;2.53;;;;;;;-145.94;46.79;75432.28;5115211;28;20197;-70
2023/07/23 07:13:30;;;;;;;2.57;2.37;;;;;;;-145.94;45.07;75415.97;5115140;28;20685;-70
2023/07/23 07:15:57;;;;;;;7.40;2.77;;;;;;;-145.94;45.47;75418.03;5115702;28;20608;-70
2023/07/23 07:18:25;;;;;;;3.37;3.17;;;;;;;-145.94;46.13;75422.09;5115737;28;20532;-70
2023/07/23 07:20:57;;;;;;;4.07;3.07;;;;;;;-145.94;46.10;75428.22;5115548;28;20200;-70
2023/07/23 07:23:28;;;;;;;6.93;2.90;;;;;;;-145.94;45.29;75424.13;5115266;28;20209;-70
2023/07/23 07:25:55;;;;;;;2.77;2.77;;;;;;;-145.94;45.65;75422.09;5114721;28;20487;-70
2023/07/23 07:28:23;;;;;;;14.03;2.97;;;;;;;-145.94;45.73;75424.13;5115171;28;20186;-70
2023/07/23 07:30:50;;;;;;;4.27;3.07;;;;;;;-145.94;46.17;75407.84;5114712;28;20212;-70
2023/07/23 07:33:16;;;;;;;4.00;3.00;;;;;;;-145.94;45.36;75413.94;5114859;28;20209;-70
2023/07/23 07:35:43;;;;;;;13.10;2.97;;;;;;;-145.94;46.42;75411.91;5114999;28;20187;-70
2023/07/23 07:38:09;;;;;;;3.60;3.50;;;;;;;-145.94;46.90;75415.97;5096643;28;20191;-70
2023/07/23 07:40:39;;;;;;;10.33;3.10;;;;;;;-145.94;46.73;75426.19;5114694;28;20643;-71
2023/07/23 07:43:05;;;;;;;3.40;2.60;;;;;;;-145.94;46.37;75426.19;5114848;28;20266;-70
2023/07/23 07:45:32;;;;;;;3.03;2.87;;;;;;;-145.94;47.14;75444.53;5114836;28;20230;-71
2023/07/23 07:47:58;;;;;;;3.70;3.60;;;;;;;-145.94;47.70;75450.63;5114521;28;20177;-70
2023/07/23 07:50:25;;;;;;;3.33;3.10;;;;;;;-145.94;48.53;75477.13;5115092;28;20193;-70
2023/07/23 07:52:51;;;;;;;4.33;3.97;;;;;;;-145.94;49.49;75485.28;5114944;28;20602;-70
2023/07/23 07:55:18;;;;;;;6.63;2.93;;;;;;;-145.94;49.50;75497.53;5113590;28;20231;-71
2023/07/23 07:57:44;;;;;;;6.00;3.10;;;;;;;-145.94;49.54;75505.69;5114396;28;20195;-70
2023/07/23 08:00:11;;;;;;;3.47;3.17;;;;;;;-145.94;49.94;75515.88;5114627;28;20230;-70
2023/07/23 08:02:41;;;;;;;3.83;3.13;;;;;;;-145.94;49.72;75522.00;5095903;28;20209;-70
2023/07/23 08:05:08;;;;;;;8.53;3.23;;;;;;;-145.94;49.58;75513.84;5114473;28;20189;-70
2023/07/23 08:07:35;;;;;;;2.80;2.70;;;;;;;-145.94;49.78;75517.91;5115029;28;20189;-70
2023/07/23 08:10:02;;;;;;;2.83;2.60;;;;;;;-145.94;49.92;75532.19;5114078;28;20181;-70
2023/07/23 08:12:29;;;;;;;3.23;3.10;;;;;;;-145.94;50.71;75568.88;5114086;28;20262;-71
2023/07/23 08:14:58;;;;;;;2.73;2.73;;;;;;;-145.94;51.42;75577.03;5114992;28;20174;-70
2023/07/23 08:17:25;;;;;;;3.00;2.80;;;;;;;-145.94;51.84;75583.16;5096699;28;20173;-71
2023/07/23 08:19:51;;;;;;;5.33;2.47;;;;;;;-145.94;52.02;75589.25;5114302;28;20192;-70
2023/07/23 08:22:18;;;;;;;2.77;2.60;;;;;;;-145.94;52.70;75607.59;5113955;28;20216;-70
2023/07/23 08:24:44;;;;;;;9.40;3.53;;;;;;;-145.94;53.04;75615.75;5114315;28;20181;-71
2023/07/23 08:27:14;;;;;;;4.10;3.67;;;;;;;-145.94;53.58;75613.72;5113931;28;20201;-71
2023/07/23 08:29:45;;;;;;;3.83;3.57;;;;;;;-145.94;55.32;75656.53;5113896;28;20231;-70
2023/07/23 08:32:16;;;;;;;3.00;3.00;;;;;;;-145.94;55.63;75664.69;5113946;28;20220;-70
2023/07/23 08:34:44;;;;;;;3.60;3.40;;;;;;;-145.94;56.33;75670.81;5113812;28;20209;-70
2023/07/23 08:37:11;;;;;;;4.23;4.03;;;;;;;-145.94;57.17;75676.91;5114184;28;20222;-70
2023/07/23 08:39:37;;;;;;;3.73;3.63;;;;;;;-145.94;57.50;75685.06;5114273;28;20222;-69
2023/07/23 08:42:47;;;;;;;3.17;3.17;;;;;;;-145.94;58.38;75691.19;5113630;28;20254;-69
2023/07/23 08:45:41;;;;;;;3.33;2.90;;;;;;;-145.94;58.76;75695.25;5113708;28;20189;-70
2023/07/23 08:48:11;;;;;;;4.23;4.13;;;;;;;-145.94;59.22;75707.50;5114457;28;20248;-70
2023/07/23 08:50:39;;;;;;;3.30;3.20;;;;;;;-145.94;59.79;75707.50;5113582;28;20189;-70
2023/07/23 08:53:09;;;;;;;3.73;3.40;;;;;;;-145.94;59.91;75709.53;5113659;28;20205;-69
2023/07/23 08:55:36;;;;;;;7.77;3.27;;;;;;;-145.94;60.57;75731.97;5113907;28;20177;-69
2023/07/23 08:58:03;;;;;;;3.50;3.20;;;;;;;-145.94;61.01;75725.84;5113723;28;20177;-70
2023/07/23 09:00:30;;;;;;;3.13;2.80;;;;;;;-145.94;61.49;75740.13;5114292;28;20180;-70
2023/07/23 09:03:03;;;;;;;3.17;3.17;;;;;;;-145.94;62.32;75746.22;5113517;28;20220;-70
2023/07/23 09:05:30;;;;;;;3.13;2.90;;;;;;;-145.94;62.65;75758.47;5114206;28;20169;-69
2023/07/23 09:07:56;;;;;;;5.13;3.40;;;;;;;-145.94;63.32;75776.81;5117431;28;20173;-70
2023/07/23 09:10:23;;;;;;;3.53;3.33;;;;;;;-145.94;64.10;75776.81;5117894;28;20181;-70
2023/07/23 09:12:49;;;;;;;2.67;2.67;;;;;;;-145.94;64.34;75789.03;5117527;28;20209;-70
2023/07/23 09:15:16;;;;;;;10.37;2.90;;;;;;;-145.94;64.21;75782.94;5117488;28;20620;-70
2023/07/23 09:17:42;;;;;;;3.30;3.10;;;;;;;-145.94;65.06;75782.94;5117438;28;20181;-70
2023/07/23 09:20:10;;;;;;;10.60;3.60;;;;;;;-145.94;65.53;75789.03;5117412;28;20189;-70
2023/07/23 09:22:36;;;;;;;3.90;2.67;;;;;;;-145.94;65.75;75795.16;5117652;28;20205;-69
2023/07/23 09:25:03;;;;;;;3.27;3.27;;;;;;;-145.94;65.75;75791.09;5117352;28;20552;-69
2023/07/23 09:27:36;;;;;;;3.03;2.93;;;;;;;-145.94;66.39;75787.00;5117280;28;20213;-71
2023/07/23 09:30:03;;;;;;;3.83;3.53;;;;;;;-145.94;66.48;75793.13;5117443;28;20624;-71
2023/07/23 09:32:30;;;;;;;3.63;3.63;;;;;;;-145.94;66.75;75797.19;5117093;28;20213;-70
2023/07/23 09:34:58;;;;;;;3.40;3.10;;;;;;;-145.94;67.53;75799.22;5117051;28;20204;-71
2023/07/23 09:37:28;;;;;;;7.13;3.40;;;;;;;-145.94;67.76;75799.22;5117678;28;20648;-70
2023/07/23 09:39:59;;;;;;;3.33;3.20;;;;;;;-145.94;67.91;75801.28;5117060;28;20181;-71
2023/07/23 09:42:25;;;;;;;3.70;3.20;;;;;;;-145.94;68.22;75821.66;5117318;28;20691;-70
2023/07/23 09:44:52;;;;;;;4.43;3.20;;;;;;;-145.94;68.61;75835.94;5116997;28;20170;-70
2023/07/23 09:47:25;;;;;;;3.73;3.40;;;;;;;-145.94;68.47;75833.88;5116890;28;20191;-69
2023/07/23 09:49:53;;;;;;;3.37;3.10;;;;;;;-145.94;68.86;75846.13;5116851;28;20637;-69
2023/07/23 09:52:23;;;;;;;2.80;2.77;;;;;;;-145.94;69.32;75831.84;5116624;28;20213;-70
2023/07/23 09:54:53;;;;;;;4.07;3.40;;;;;;;-145.94;69.34;75829.81;5117241;28;20257;-70
2023/07/23 09:57:20;;;;;;;3.00;3.00;;;;;;;-145.94;69.35;75829.81;5116968;28;20182;-70
2023/07/23 09:59:47;;;;;;;4.03;3.73;;;;;;;-145.94;69.88;75819.63;5116746;28;20188;-70
2023/07/23 10:02:15;;;;;;;3.77;3.77;;;;;;;-145.94;70.13;75825.75;5116541;28;20203;-70
2023/07/23 10:04:41;;;;;;;3.77;3.67;;;;;;;-145.94;69.30;75823.69;5116563;28;20238;-69
2023/07/23 10:07:10;;;;;;;4.07;3.73;;;;;;;-145.94;70.18;75827.78;5116422;28;20209;-69
2023/07/23 10:09:37;;;;;;;3.73;3.63;;;;;;;-145.94;70.11;75819.63;5116992;28;20193;-70
2023/07/23 10:12:05;;;;;;;4.93;4.63;;;;;;;-145.94;70.22;75823.69;5116628;28;20209;-70
2023/07/23 10:14:31;;;;;;;5.90;3.50;;;;;;;-145.94;70.44;75831.84;5116434;28;20238;-71
2023/07/23 10:17:00;;;;;;;3.57;3.47;;;;;;;-145.94;70.81;75835.94;5116630;28;20189;-70
2023/07/23 10:19:27;;;;;;;4.33;4.23;;;;;;;-145.94;71.37;75833.88;5116295;28;20245;-70
2023/07/23 10:21:54;;;;;;;6.93;5.00;;;;;;;-145.94;71.27;75831.84;5116122;28;20188;-69
2023/07/23 10:24:20;;;;;;;4.93;4.90;;;;;;;-145.94;71.44;75846.13;5116468;28;20185;-70
2023/07/23 10:26:48;;;;;;;5.37;5.27;;;;;;;-145.94;71.39;75837.97;5116115;28;20189;-70
2023/07/23 10:29:18;;;;;;;6.13;5.83;;;;;;;-145.94;71.72;75848.16;5116529;28;20181;-70
2023/07/23 10:31:45;;;;;;;4.73;4.63;;;;;;;-145.94;72.21;75854.28;5116521;28;20189;-70
2023/07/23 10:34:27;;;;;;;5.83;5.30;;;;;;;-145.94;71.99;75852.25;5115974;28;20185;-71
2023/07/23 10:37:14;;;;;;;4.63;4.53;;;;;;;-145.94;72.53;75866.50;5116489;28;20543;-70
2023/07/23 10:39:46;;;;;;;4.73;4.63;;;;;;;-145.94;72.20;75870.59;5116504;28;20177;-70
2023/07/23 10:42:27;;;;;;;5.13;4.97;;;;;;;-145.94;72.69;75864.47;5116038;28;20548;-69
2023/07/23 10:45:26;;;;;;;5.77;5.60;;;;;;;-145.94;72.40;75856.31;5116040;28;20230;-70
2023/07/23 10:47:57;;;;;;;4.50;4.40;;;;;;;-145.94;72.18;75854.28;5115739;28;20169;-70
2023/07/23 10:50:27;;;;;;;5.07;4.97;;;;;;;-145.94;72.55;75858.34;5116274;28;20193;-70
2023/07/23 10:53:02;;;;;;;8.60;5.33;;;;;;;-145.94;72.25;75854.28;5115523;28;20265;-70
2023/07/23 10:55:46;;;;;;;5.50;5.33;;;;;;;-145.94;72.81;75856.31;5115593;28;20188;-71
2023/07/23 10:58:15;;;;;;;5.67;5.57;;;;;;;-145.94;73.04;75854.28;5115571;28;20234;-71
2023/07/23 11:00:44;;;;;;;6.80;6.47;;;;;;;-145.94;72.98;75842.03;5116010;28;20189;-71
2023/07/23 11:03:18;;;;;;;7.40;7.20;;;;;;;-145.94;73.54;75842.03;5115443;28;20213;-72
2023/07/23 11:05:46;;;;;;;6.70;6.47;;;;;;;-145.94;73.44;75835.94;5115742;28;20262;-70
2023/07/23 11:08:23;;;;;;;6.90;6.50;;;;;;;-145.94;73.43;75825.75;5115341;28;20197;-72
2023/07/23 11:11:01;;;;;;;6.90;6.57;;;;;;;-145.94;73.37;75819.63;5115867;28;20165;-72
2023/07/23 11:13:31;;;;;;;7.70;7.40;;;;;;;-145.94;73.88;75809.44;5115661;28;20209;-72
2023/07/23 11:15:58;;;;;;;4.77;4.47;;;;;;;-145.94;73.64;75819.63;5115928;28;20260;-72
2023/07/23 11:18:28;;;;;;;4.90;4.67;;;;;;;-145.94;73.75;75829.81;5115543;28;20202;-72
2023/07/23 11:20:56;;;;;;;4.40;4.30;;;;;;;-145.94;73.86;75825.75;5115200;28;20191;-72